EDT,Max TemperatureF,Mean TemperatureF,Min TemperatureF,Max Dew PointF,MeanDew PointF,Min DewpointF,Max Humidity, Mean Humidity, Min Humidity, Max Sea Level PressureIn, Mean Sea Level PressureIn, Min Sea Level PressureIn, Max VisibilityMiles, Mean VisibilityMiles, Min VisibilityMiles, Max Wind SpeedMPH, Mean Wind SpeedMPH, Max Gust SpeedMPH,PrecipitationIn, CloudCover, Events, WindDirDegrees
2012-10-1,64,54,44,48,44,41,93,69,45,29.98,29.92,29.86,10,10,10,8,1,,0.00,0,,96
2012-10-2,70,62,54,55,52,49,93,75,54,29.91,29.87,29.84,10,10,9,10,5,,0.03,6,Rain,50
2012-10-3,71,64,59,61,56,53,100,79,63,30.09,30.00,29.90,10,8,2,15,5,21,0.00,8,Rain,215
2012-10-4,75,67,59,55,52,50,83,61,40,30.09,30.05,30.00,10,10,10,16,10,24,0.00,2,,220
2012-10-5,66,56,46,58,48,40,89,72,55,30.06,30.02,29.97,10,10,8,15,10,21,0.09,7,Rain,265
2012-10-6,50,44,41,43,37,31,93,72,50,30.12,30.02,29.95,10,10,9,15,9,24,0.00,7,,268
2012-10-7,51,46,41,38,35,29,82,67,44,30.16,30.12,30.10,10,10,10,9,4,,0.00,7,Rain,291
2012-10-8,54,44,35,37,32,29,92,63,40,30.25,30.18,30.14,10,10,10,14,6,20,0.00,1,,215
2012-10-9,61,52,42,39,36,33,73,55,39,30.14,30.03,29.86,10,10,10,20,8,29,0.00,0,,200
2012-10-10,54,46,39,43,36,26,93,68,44,30.18,29.95,29.80,10,10,8,20,12,30,0.08,6,Rain,272
2012-10-11,61,48,35,40,31,28,82,55,31,30.21,30.14,30.02,10,10,10,24,10,34,0.00,2,,243
2012-10-12,52,46,37,36,33,29,79,65,47,30.44,30.37,30.19,10,10,10,12,7,20,0.00,2,Rain,1
2012-10-13,61,46,33,55,40,28,94,79,69,30.42,30.15,29.91,10,8,2,14,5,22,0.33,5,Rain,168
2012-10-14,69,64,60,63,60,53,100,84,70,29.90,29.71,29.44,10,8,4,25,12,44,0.10,6,Rain,205
2012-10-15,57,54,46,52,41,38,82,70,62,29.94,29.77,29.48,10,10,10,24,15,34,0.01,8,Rain,284
2012-10-16,57,47,39,46,37,33,81,63,49,30.01,29.91,29.79,10,10,10,13,5,17,0.00,3,,207
2012-10-17,71,62,52,57,48,44,97,63,41,29.79,29.69,29.60,10,10,7,21,10,26,0.09,5,Rain,181
2012-10-18,61,57,52,56,45,33,94,66,38,29.69,29.55,29.42,10,10,9,22,10,30,0.14,5,Rain,194
2012-10-19,57,52,46,46,43,39,93,77,53,29.68,29.62,29.57,10,10,7,13,7,20,0.09,8,Rain,185
2012-10-20,55,50,46,45,44,40,96,86,55,29.91,29.68,29.59,10,10,6,15,8,21,0.03,7,Rain,247
2012-10-21,61,50,39,45,42,39,100,78,48,30.11,30.06,29.93,10,9,2,12,5,,0.00,1,,228
2012-10-22,69,56,42,57,49,41,97,76,53,30.12,30.06,29.99,10,10,8,8,2,,0.01,2,,174
2012-10-23,68,62,59,61,59,56,96,84,77,30.00,29.96,29.91,10,10,3,10,5,,0.09,7,Rain,222
2012-10-24,75,68,60,60,59,57,97,78,55,30.04,30.01,29.96,10,9,4,13,5,,0.04,3,Rain,185
2012-10-25,77,66,57,56,54,52,84,64,43,30.00,29.94,29.86,10,10,10,21,9,29,0.00,0,,188
2012-10-26,68,57,46,54,43,34,93,74,59,30.25,30.12,29.85,10,10,7,15,10,23,0.07,6,Rain,336
2012-10-27,54,48,42,38,34,31,76,63,47,30.22,30.19,30.14,10,10,10,17,10,24,0.00,7,,7
2012-10-28,46,42,39,36,31,29,77,62,51,30.20,30.16,30.11,10,10,10,23,13,36,0.00,7,Rain,6
2012-10-29,43,41,39,38,35,32,89,78,67,30.08,29.95,29.67,10,10,10,25,19,44,0.03,8,Rain,356
2012-10-30,46,41,37,40,37,35,93,87,80,29.62,29.46,29.41,10,10,6,26,19,38,0.17,8,Rain-Snow,343
2012-10-31,43,40,37,39,36,34,89,84,79,29.65,29.56,29.46,10,10,9,15,11,29,0.01,8,Rain,312